createdAt,value
2022-12-01T00:01:10.082Z,99.90
2022-12-01T00:03:37.576Z,99.90
2022-12-01T00:06:13.382Z,99.90
2022-12-01T00:08:40.303Z,99.90
2022-12-01T00:11:10.075Z,99.90
2022-12-01T00:13:37.610Z,99.90
2022-12-01T00:16:16.000Z,99.90
2022-12-01T00:18:43.584Z,99.90
2022-12-01T00:21:18.307Z,99.90
2022-12-01T00:23:50.384Z,99.90
2022-12-01T00:26:19.305Z,99.90
2022-12-01T00:28:52.346Z,99.90
2022-12-01T00:31:19.535Z,99.90
2022-12-01T00:33:46.790Z,99.90
2022-12-01T00:36:15.292Z,99.90
2022-12-01T00:38:42.309Z,99.90
2022-12-01T00:41:09.299Z,99.90
2022-12-01T00:43:36.291Z,99.90
2022-12-01T00:46:03.739Z,99.90
2022-12-01T00:48:30.986Z,99.90
2022-12-01T00:50:57.900Z,99.90
2022-12-01T00:53:24.855Z,99.90
2022-12-01T00:55:54.182Z,99.90
2022-12-01T00:58:21.886Z,99.90
2022-12-01T01:00:48.913Z,99.90
2022-12-01T01:03:15.831Z,99.90
2022-12-01T01:05:43.686Z,99.90
2022-12-01T01:08:13.115Z,99.90
2022-12-01T01:10:44.659Z,99.90
2022-12-01T01:13:12.742Z,99.90
2022-12-01T01:15:39.647Z,99.90
2022-12-01T01:18:07.398Z,99.90
2022-12-01T01:20:34.286Z,99.90
2022-12-01T01:23:01.189Z,99.90
2022-12-01T01:25:28.153Z,99.90
2022-12-01T01:27:55.109Z,99.90
2022-12-01T01:30:22.026Z,99.90
2022-12-01T01:32:49.045Z,99.90
2022-12-01T01:35:16.937Z,99.90
2022-12-01T01:37:43.801Z,99.90
2022-12-01T01:40:11.484Z,99.90
2022-12-01T01:42:38.346Z,99.90
2022-12-01T01:45:17.270Z,99.90
2022-12-01T01:47:45.214Z,99.90
2022-12-01T01:50:16.262Z,99.90
2022-12-01T01:52:51.673Z,99.90
2022-12-01T01:55:18.976Z,99.90
2022-12-01T01:57:46.630Z,99.90
2022-12-01T02:00:17.111Z,99.90
2022-12-01T02:02:46.502Z,99.90
2022-12-01T02:05:33.887Z,99.90
2022-12-01T02:08:02.603Z,99.90
2022-12-01T02:11:00.377Z,99.90
2022-12-01T02:13:52.143Z,99.90
2022-12-01T02:16:31.075Z,99.90
2022-12-01T02:19:09.973Z,99.90
2022-12-01T02:22:04.592Z,99.90
2022-12-01T02:25:02.532Z,99.90
2022-12-01T02:27:58.012Z,99.90
2022-12-01T02:30:32.936Z,99.90
2022-12-01T02:33:06.719Z,99.90
2022-12-01T02:35:43.759Z,99.90
2022-12-01T02:38:29.886Z,99.90
2022-12-01T02:41:38.380Z,99.90
2022-12-01T02:44:23.179Z,99.90
2022-12-01T02:47:12.141Z,99.90
2022-12-01T02:49:47.879Z,99.90
2022-12-01T02:52:16.320Z,99.90
2022-12-01T02:54:48.576Z,99.90
2022-12-01T02:57:16.980Z,99.90
2022-12-01T02:59:48.745Z,99.90
2022-12-01T03:02:34.124Z,99.90
2022-12-01T03:05:14.472Z,99.90
2022-12-01T03:08:19.510Z,99.90
2022-12-01T03:10:56.178Z,99.90
2022-12-01T03:13:56.004Z,99.90
2022-12-01T03:16:53.304Z,99.90
2022-12-01T03:19:26.254Z,99.90
2022-12-01T03:22:04.322Z,99.90
2022-12-01T03:24:33.166Z,99.90
2022-12-01T03:27:02.517Z,99.90
2022-12-01T03:29:41.554Z,99.90
2022-12-01T03:32:20.519Z,99.90
2022-12-01T03:34:55.366Z,99.90
2022-12-01T03:37:34.753Z,99.90
2022-12-01T03:40:06.403Z,99.90
2022-12-01T03:42:38.684Z,99.90
2022-12-01T03:45:10.448Z,99.90
2022-12-01T03:47:39.674Z,99.90
2022-12-01T03:50:13.357Z,99.90
2022-12-01T03:53:08.917Z,99.90
2022-12-01T03:55:41.996Z,99.90
2022-12-01T03:58:21.384Z,99.90
2022-12-01T04:00:51.596Z,99.90
2022-12-01T04:03:20.286Z,99.90
2022-12-01T04:05:47.262Z,99.90
2022-12-01T04:08:14.189Z,99.90
2022-12-01T04:10:41.062Z,99.90
2022-12-01T04:13:12.299Z,99.90
2022-12-01T04:15:39.270Z,99.90
2022-12-01T04:18:06.241Z,99.90
2022-12-01T04:20:33.137Z,99.90
2022-12-01T04:23:00.081Z,99.90
2022-12-01T04:25:27.201Z,99.90
2022-12-01T04:27:54.004Z,99.90
2022-12-01T04:30:21.945Z,99.90
2022-12-01T04:32:48.783Z,99.90
2022-12-01T04:35:17.675Z,99.90
2022-12-01T04:37:44.567Z,99.90
2022-12-01T04:40:11.835Z,99.90
2022-12-01T04:42:38.747Z,99.90
2022-12-01T04:45:06.137Z,99.90
2022-12-01T04:47:32.985Z,99.90
2022-12-01T04:50:00.624Z,99.90
2022-12-01T04:52:32.034Z,99.90
2022-12-01T04:55:02.114Z,99.90
2022-12-01T04:57:28.962Z,99.90
2022-12-01T04:59:55.824Z,99.90
2022-12-01T05:02:22.817Z,99.90
2022-12-01T05:04:49.715Z,99.90
2022-12-01T05:07:18.085Z,99.90
2022-12-01T05:09:45.007Z,99.90
2022-12-01T05:12:11.842Z,99.90
2022-12-01T05:14:38.735Z,99.90
2022-12-01T05:17:05.565Z,99.90
2022-12-01T05:19:51.162Z,99.90
2022-12-01T05:22:31.303Z,99.90
2022-12-01T05:25:05.309Z,99.90
2022-12-01T05:27:32.144Z,99.90
2022-12-01T05:29:59.001Z,99.90
2022-12-01T05:32:25.867Z,99.90
2022-12-01T05:34:52.771Z,99.90
2022-12-01T05:37:19.644Z,99.90
2022-12-01T05:39:46.817Z,99.90
2022-12-01T05:42:14.861Z,99.90
2022-12-01T05:44:41.723Z,99.90
2022-12-01T05:47:08.598Z,99.90
2022-12-01T05:49:35.486Z,99.90
2022-12-01T05:52:02.326Z,99.90
2022-12-01T05:54:30.590Z,99.90
2022-12-01T05:56:57.685Z,99.90
2022-12-01T05:59:24.598Z,99.90
2022-12-01T06:01:51.511Z,99.90
2022-12-01T06:04:19.088Z,99.90
2022-12-01T06:06:46.184Z,99.90
2022-12-01T06:09:13.083Z,99.90
2022-12-01T06:11:39.936Z,99.90
2022-12-01T06:14:06.832Z,99.90
2022-12-01T06:16:33.800Z,99.90
2022-12-01T06:19:02.787Z,99.90
2022-12-01T06:21:29.642Z,99.90
2022-12-01T06:23:56.554Z,99.90
2022-12-01T06:26:23.401Z,99.90
2022-12-01T06:28:50.256Z,99.90
2022-12-01T06:31:17.255Z,99.90
2022-12-01T06:33:44.167Z,99.90
2022-12-01T06:36:11.215Z,99.90
2022-12-01T06:38:38.155Z,99.90
2022-12-01T06:41:07.096Z,99.90
2022-12-01T06:43:37.851Z,99.90
2022-12-01T06:46:06.413Z,99.90
2022-12-01T06:48:34.510Z,99.90
2022-12-01T06:51:01.918Z,99.90
2022-12-01T06:53:29.903Z,99.90
2022-12-01T06:56:06.367Z,99.90
2022-12-01T06:58:34.680Z,99.90
2022-12-01T07:01:09.675Z,99.90
2022-12-01T07:03:36.626Z,99.90
2022-12-01T07:06:03.991Z,99.90
2022-12-01T07:08:32.225Z,99.90
2022-12-01T07:11:04.910Z,99.90
2022-12-01T07:13:33.926Z,99.90
2022-12-01T07:16:04.632Z,99.90
2022-12-01T07:18:33.069Z,99.90
2022-12-01T07:21:08.734Z,99.90
2022-12-01T07:23:36.386Z,99.90
2022-12-01T07:26:09.880Z,99.90
2022-12-01T07:28:36.838Z,99.90
2022-12-01T07:31:12.486Z,99.90
2022-12-01T07:33:40.280Z,99.90
2022-12-01T07:36:07.976Z,99.90
2022-12-01T07:38:35.837Z,99.90
2022-12-01T07:41:11.719Z,99.90
2022-12-01T07:43:39.709Z,99.90
2022-12-01T07:46:20.370Z,99.90
2022-12-01T07:48:49.270Z,99.90
2022-12-01T07:51:16.995Z,99.90
2022-12-01T07:53:45.461Z,99.90
2022-12-01T07:56:12.647Z,99.90
2022-12-01T07:58:39.855Z,99.90
2022-12-01T08:01:08.844Z,99.90
2022-12-01T08:03:36.563Z,99.90
2022-12-01T08:06:04.423Z,99.90
2022-12-01T08:08:33.298Z,99.90
2022-12-01T08:11:06.159Z,99.90
2022-12-01T08:13:33.434Z,99.90
2022-12-01T08:16:05.282Z,99.90
2022-12-01T08:18:35.794Z,99.90
2022-12-01T08:21:03.597Z,99.90
2022-12-01T08:23:30.491Z,99.90
2022-12-01T08:26:04.608Z,99.90
2022-12-01T08:28:31.811Z,99.90
2022-12-01T08:30:58.789Z,99.90
2022-12-01T08:33:25.730Z,99.90
2022-12-01T08:35:52.939Z,99.90
2022-12-01T08:38:19.802Z,99.90
2022-12-01T08:40:46.701Z,99.90
2022-12-01T08:43:28.294Z,99.90
2022-12-01T08:46:01.506Z,99.10
2022-12-01T08:48:31.727Z,97.80
2022-12-01T08:51:19.025Z,96.90
2022-12-01T08:53:47.961Z,95.30
2022-12-01T08:56:37.546Z,94.70
2022-12-01T08:59:05.362Z,95.50
2022-12-01T09:01:33.236Z,94.80
2022-12-01T09:04:10.499Z,95.10
2022-12-01T09:06:42.770Z,94.80
2022-12-01T09:09:12.261Z,94.90
2022-12-01T09:11:40.121Z,95.20
2022-12-01T09:14:07.253Z,95.20
2022-12-01T09:16:34.292Z,94.60
2022-12-01T09:19:01.627Z,94.60
2022-12-01T09:21:33.179Z,94.60
2022-12-01T09:24:01.639Z,93.60
2022-12-01T09:26:29.154Z,93.30
2022-12-01T09:29:01.849Z,93.20
2022-12-01T09:31:28.911Z,92.50
2022-12-01T09:33:58.047Z,91.90
2022-12-01T09:36:25.942Z,91.60
2022-12-01T09:38:53.125Z,91.30
2022-12-01T09:41:40.668Z,91.30
2022-12-01T09:44:14.138Z,91.20
2022-12-01T09:46:49.177Z,90.80
2022-12-01T09:49:39.902Z,90.80
2022-12-01T09:52:12.222Z,90.70
2022-12-01T09:54:39.166Z,90.10
2022-12-01T09:57:06.241Z,90.30
2022-12-01T09:59:39.854Z,90.10
2022-12-01T10:02:22.513Z,89.10
2022-12-01T10:04:52.299Z,87.50
2022-12-01T10:07:27.800Z,86.80
2022-12-01T10:10:30.200Z,85.90
2022-12-01T10:12:57.845Z,86.30
2022-12-01T10:15:39.641Z,85.30
2022-12-01T10:18:40.616Z,85.50
2022-12-01T10:21:27.046Z,85.00
2022-12-01T10:24:02.992Z,83.90
2022-12-01T10:27:01.162Z,83.80
2022-12-01T10:29:47.734Z,83.10
2022-12-01T10:32:29.726Z,84.00
2022-12-01T10:34:57.971Z,84.50
2022-12-01T10:37:27.610Z,84.50
2022-12-01T10:39:56.485Z,84.40
2022-12-01T10:42:36.846Z,84.40
2022-12-01T10:45:14.733Z,84.00
2022-12-01T10:48:13.112Z,85.10
2022-12-01T10:50:41.094Z,87.20
2022-12-01T10:53:33.727Z,89.40
2022-12-01T10:56:06.370Z,90.90
2022-12-01T10:58:41.564Z,92.10
2022-12-01T11:01:32.152Z,93.30
2022-12-01T11:04:04.095Z,94.50
2022-12-01T11:06:32.037Z,95.30
2022-12-01T11:09:05.429Z,96.00
2022-12-01T11:11:36.819Z,96.30
2022-12-01T11:14:19.744Z,97.30
2022-12-01T11:16:50.441Z,97.40
2022-12-01T11:19:27.202Z,97.10
2022-12-01T11:22:00.064Z,96.30
2022-12-01T11:24:45.391Z,95.30
2022-12-01T11:27:27.821Z,94.70
2022-12-01T11:30:05.862Z,94.30
2022-12-01T11:32:39.218Z,93.70
2022-12-01T11:35:25.789Z,93.60
2022-12-01T11:38:29.157Z,93.40
2022-12-01T11:40:49.618Z,93.50
2022-12-01T11:43:30.141Z,93.70
2022-12-01T11:46:00.543Z,94.40
2022-12-01T11:48:30.116Z,94.80
2022-12-01T11:51:05.010Z,95.30
2022-12-01T11:53:41.447Z,95.60
2022-12-01T11:56:29.656Z,95.80
2022-12-01T11:59:02.361Z,96.20
2022-12-01T12:01:54.057Z,96.10
2022-12-01T12:04:26.910Z,95.80
2022-12-01T12:07:21.201Z,95.50
2022-12-01T12:10:28.666Z,95.70
2022-12-01T12:13:06.488Z,95.70
2022-12-01T12:15:45.293Z,95.90
2022-12-01T12:18:33.405Z,96.20
2022-12-01T12:21:15.290Z,96.20
2022-12-01T12:23:42.108Z,96.00
2022-12-01T12:26:55.551Z,95.90
2022-12-01T12:29:56.019Z,96.10
2022-12-01T12:32:44.302Z,96.00
2022-12-01T12:35:22.946Z,96.20
2022-12-01T12:37:58.939Z,95.90
2022-12-01T12:40:53.198Z,95.60
2022-12-01T12:43:41.640Z,95.60
2022-12-01T12:46:12.019Z,95.60
2022-12-01T12:49:19.381Z,95.50
2022-12-01T12:51:51.337Z,95.10
2022-12-01T12:54:37.507Z,95.20
2022-12-01T12:57:11.167Z,95.30
2022-12-01T12:59:46.617Z,95.10
2022-12-01T13:02:20.105Z,95.30
2022-12-01T13:05:04.703Z,95.30
2022-12-01T13:07:43.693Z,95.40
2022-12-01T13:10:23.267Z,95.50
2022-12-01T13:12:59.519Z,95.60
2022-12-01T13:15:27.489Z,95.50
2022-12-01T13:17:59.019Z,95.60
2022-12-01T13:20:28.903Z,95.70
2022-12-01T13:22:58.840Z,95.80
2022-12-01T13:25:39.589Z,95.80
2022-12-01T13:28:20.449Z,96.10
2022-12-01T13:31:09.018Z,96.30
2022-12-01T13:33:37.738Z,96.60
2022-12-01T13:36:45.135Z,96.90
2022-12-01T13:39:28.026Z,96.70
2022-12-01T13:42:07.380Z,97.10
2022-12-01T13:44:51.637Z,97.20
2022-12-01T13:47:24.687Z,97.70
2022-12-01T13:49:53.397Z,97.90
2022-12-01T13:52:23.333Z,97.80
2022-12-01T13:55:08.794Z,97.80
2022-12-01T13:57:49.783Z,97.70
2022-12-01T14:00:34.859Z,97.60
2022-12-01T14:03:33.314Z,97.70
2022-12-01T14:06:10.032Z,97.70
2022-12-01T14:08:46.209Z,97.50
2022-12-01T14:11:20.983Z,97.60
2022-12-01T14:13:53.744Z,97.70
2022-12-01T14:16:21.602Z,97.80
2022-12-01T14:18:57.010Z,98.00
2022-12-01T14:21:47.495Z,98.20
2022-12-01T14:24:43.017Z,98.60
2022-12-01T14:27:14.100Z,98.80
2022-12-01T14:29:44.781Z,99.00
2022-12-01T14:32:17.707Z,99.20
2022-12-01T14:34:44.958Z,99.40
2022-12-01T14:37:14.147Z,99.80
2022-12-01T14:40:05.554Z,99.80
2022-12-01T14:42:56.527Z,99.80
2022-12-01T14:45:30.342Z,99.90
2022-12-01T14:48:09.941Z,99.90
2022-12-01T14:50:46.937Z,99.90
2022-12-01T14:53:27.166Z,99.90
2022-12-01T14:56:15.896Z,99.90
2022-12-01T14:58:52.397Z,99.90
2022-12-01T15:01:21.046Z,99.90
2022-12-01T15:04:00.295Z,99.90
2022-12-01T15:06:30.030Z,99.90
2022-12-01T15:12:02.548Z,99.90
2022-12-01T15:14:34.357Z,99.90
2022-12-01T15:17:03.444Z,99.90
2022-12-01T15:19:37.330Z,99.90
2022-12-01T15:22:10.409Z,99.90
2022-12-01T15:24:37.311Z,99.90
2022-12-01T15:27:04.554Z,99.90
2022-12-01T15:29:45.656Z,99.90
2022-12-01T15:32:17.187Z,99.90
2022-12-01T15:34:46.980Z,99.90
2022-12-01T15:37:18.235Z,99.90
2022-12-01T15:40:47.729Z,99.90
2022-12-01T15:43:17.344Z,99.90
2022-12-01T15:45:56.841Z,99.90
2022-12-01T15:48:43.037Z,99.90
2022-12-01T15:51:24.391Z,99.90
2022-12-01T15:53:55.522Z,99.90
2022-12-01T15:56:27.069Z,99.90
2022-12-01T15:59:03.156Z,99.90
2022-12-01T16:01:31.534Z,99.90
2022-12-01T16:04:15.780Z,99.90
2022-12-01T16:06:43.218Z,99.90
2022-12-01T16:09:31.521Z,99.90
2022-12-01T16:12:16.937Z,99.90
2022-12-01T16:15:07.035Z,99.90
2022-12-01T16:17:46.006Z,99.90
2022-12-01T16:20:23.245Z,99.90
2022-12-01T16:22:59.080Z,99.90
2022-12-01T16:25:37.219Z,99.90
2022-12-01T16:28:07.645Z,99.90
2022-12-01T16:30:39.405Z,99.90
2022-12-01T16:33:18.658Z,99.90
2022-12-01T16:35:45.972Z,99.90
2022-12-01T16:38:24.154Z,99.90
2022-12-01T16:40:55.373Z,99.90
2022-12-01T16:43:24.691Z,99.90
2022-12-01T16:46:00.381Z,99.90
2022-12-01T16:48:27.409Z,99.90
2022-12-01T16:50:55.134Z,99.90
2022-12-01T16:53:22.015Z,99.90
2022-12-01T16:55:58.812Z,99.90
2022-12-01T16:58:26.009Z,99.90
2022-12-01T17:00:53.022Z,99.90
2022-12-01T17:03:26.443Z,99.90
2022-12-01T17:05:54.676Z,99.90
2022-12-01T17:08:22.524Z,99.90
2022-12-01T17:10:50.687Z,99.90
2022-12-01T17:13:19.109Z,99.90
2022-12-01T17:15:48.469Z,99.90
2022-12-01T17:18:17.700Z,99.90
2022-12-01T17:20:45.028Z,99.90
2022-12-01T17:23:12.077Z,99.90
2022-12-01T17:25:42.542Z,99.90
2022-12-01T17:28:09.433Z,99.90
2022-12-01T17:30:37.125Z,99.90
2022-12-01T17:33:04.283Z,99.90
2022-12-01T17:35:31.139Z,99.90
2022-12-01T17:37:58.044Z,99.90
2022-12-01T17:40:24.971Z,99.90
2022-12-01T17:42:51.976Z,99.90
2022-12-01T17:45:19.269Z,99.90
2022-12-01T17:47:46.704Z,99.90
2022-12-01T17:50:13.893Z,99.90
2022-12-01T17:52:41.079Z,99.90
2022-12-01T17:55:08.762Z,99.90
2022-12-01T17:57:36.835Z,99.90
2022-12-01T18:00:05.977Z,99.90
2022-12-01T18:02:33.327Z,99.90
2022-12-01T18:05:00.266Z,99.90
2022-12-01T18:07:27.268Z,99.90
2022-12-01T18:09:54.276Z,99.90
2022-12-01T18:12:21.148Z,99.90
2022-12-01T18:14:48.206Z,99.90
2022-12-01T18:17:15.400Z,99.90
2022-12-01T18:19:42.276Z,99.90
2022-12-01T18:22:09.127Z,99.90
2022-12-01T18:24:36.116Z,99.90
2022-12-01T18:27:03.054Z,99.90
2022-12-01T18:29:30.030Z,99.90
2022-12-01T18:31:58.329Z,99.90
2022-12-01T18:34:26.978Z,99.90
2022-12-01T18:36:53.842Z,99.90
2022-12-01T18:39:20.794Z,99.90
2022-12-01T18:41:47.916Z,99.90
2022-12-01T18:44:15.085Z,99.90
2022-12-01T18:46:42.142Z,99.90
2022-12-01T18:49:09.267Z,99.90
2022-12-01T18:51:37.649Z,99.90
2022-12-01T18:54:07.224Z,99.90
2022-12-01T18:56:34.522Z,99.90
2022-12-01T18:59:04.984Z,99.90
2022-12-01T19:01:40.939Z,99.90
2022-12-01T19:04:09.659Z,99.90
2022-12-01T19:06:38.477Z,99.90
2022-12-01T19:09:07.259Z,99.90
2022-12-01T19:11:34.142Z,99.90
2022-12-01T19:14:01.147Z,99.90
2022-12-01T19:16:28.397Z,99.90
2022-12-01T19:18:55.428Z,99.90
2022-12-01T19:21:22.343Z,99.90
2022-12-01T19:23:49.967Z,99.90
2022-12-01T19:26:19.392Z,99.90
2022-12-01T19:28:46.875Z,99.90
2022-12-01T19:31:20.778Z,99.90
2022-12-01T19:33:47.845Z,99.90
2022-12-01T19:36:17.622Z,99.90
2022-12-01T19:38:45.254Z,99.90
2022-12-01T19:41:13.815Z,99.90
2022-12-01T19:43:42.391Z,99.90
2022-12-01T19:46:12.727Z,99.90
2022-12-01T19:48:40.540Z,99.90
2022-12-01T19:51:17.495Z,99.90
2022-12-01T19:53:44.440Z,99.90
2022-12-01T19:56:11.497Z,99.90
2022-12-01T19:58:38.640Z,99.90
2022-12-01T20:01:08.370Z,99.90
2022-12-01T20:03:35.686Z,99.90
2022-12-01T20:06:11.465Z,99.90
2022-12-01T20:08:38.714Z,99.90
2022-12-01T20:11:06.492Z,99.90
2022-12-01T20:13:35.070Z,99.90
2022-12-01T20:16:23.530Z,99.90
2022-12-01T20:18:51.473Z,99.90
2022-12-01T20:21:22.572Z,99.90
2022-12-01T20:23:52.022Z,99.90
2022-12-01T20:26:20.202Z,99.90
2022-12-01T20:28:49.239Z,99.90
2022-12-01T20:31:25.451Z,99.90
2022-12-01T20:33:54.866Z,99.90
2022-12-01T20:36:22.528Z,99.90
2022-12-01T20:38:49.416Z,99.90
2022-12-01T20:41:16.640Z,99.90
2022-12-01T20:43:43.694Z,99.90
2022-12-01T20:46:11.820Z,99.90
2022-12-01T20:48:38.997Z,99.90
2022-12-01T20:51:07.967Z,99.90
2022-12-01T20:53:35.927Z,99.90
2022-12-01T20:56:08.625Z,99.90
2022-12-01T20:58:37.883Z,99.90
2022-12-01T21:01:14.251Z,99.90
2022-12-01T21:03:43.304Z,99.90
2022-12-01T21:06:12.216Z,99.90
2022-12-01T21:08:40.974Z,99.90
2022-12-01T21:11:13.703Z,99.90
2022-12-01T21:13:43.398Z,99.90
2022-12-01T21:16:16.166Z,99.90
2022-12-01T21:19:08.774Z,99.90
2022-12-01T21:21:39.481Z,99.90
2022-12-01T21:24:18.779Z,99.90
2022-12-01T21:26:59.486Z,99.90
2022-12-01T21:29:34.306Z,99.90
2022-12-01T21:32:10.068Z,99.90
2022-12-01T21:34:37.239Z,99.90
2022-12-01T21:37:13.362Z,99.90
2022-12-01T21:39:40.543Z,99.90
2022-12-01T21:42:19.482Z,99.90
2022-12-01T21:44:46.851Z,99.90
2022-12-01T21:47:21.599Z,99.90
2022-12-01T21:49:54.160Z,99.90
2022-12-01T21:52:39.005Z,99.90
2022-12-01T21:55:26.219Z,99.90
2022-12-01T21:57:54.075Z,99.90
2022-12-01T22:00:35.410Z,99.90
2022-12-01T22:03:08.209Z,99.90
2022-12-01T22:05:56.160Z,99.90
2022-12-01T22:08:35.835Z,99.90
2022-12-01T22:11:08.599Z,99.90
2022-12-01T22:13:44.921Z,99.90
2022-12-01T22:16:31.584Z,99.90
2022-12-01T22:19:17.785Z,99.90
2022-12-01T22:21:47.852Z,99.90
2022-12-01T22:24:27.922Z,99.90
2022-12-01T22:27:07.102Z,99.90
2022-12-01T22:29:43.412Z,99.90
2022-12-01T22:32:13.279Z,99.90
2022-12-01T22:34:49.751Z,99.90
2022-12-01T22:37:29.419Z,99.90
2022-12-01T22:39:57.106Z,99.90
2022-12-01T22:42:33.185Z,99.90
2022-12-01T22:45:13.142Z,99.90
2022-12-01T22:47:40.044Z,99.90
2022-12-01T22:50:30.361Z,99.90
2022-12-01T22:53:10.879Z,99.90
2022-12-01T22:55:38.182Z,99.90
2022-12-01T22:58:21.549Z,99.90
2022-12-01T23:00:48.541Z,99.90
2022-12-01T23:03:16.493Z,99.90
2022-12-01T23:05:45.394Z,99.90
2022-12-01T23:08:20.041Z,99.90
2022-12-01T23:10:46.910Z,99.90
2022-12-01T23:13:15.063Z,99.90
2022-12-01T23:15:46.335Z,99.90
2022-12-01T23:18:28.734Z,99.90
2022-12-01T23:20:57.462Z,99.90
2022-12-01T23:23:36.624Z,99.90
2022-12-01T23:26:07.390Z,99.90
2022-12-01T23:28:36.991Z,99.90
2022-12-01T23:31:03.926Z,99.90
2022-12-01T23:33:33.885Z,99.90
2022-12-01T23:36:12.636Z,99.90
2022-12-01T23:38:45.536Z,99.90
2022-12-01T23:41:33.515Z,99.90
2022-12-01T23:44:24.749Z,99.90
2022-12-01T23:46:55.299Z,99.90
2022-12-01T23:49:32.351Z,99.90
2022-12-01T23:52:02.274Z,99.90
2022-12-01T23:54:34.556Z,99.90
2022-12-01T23:57:03.302Z,99.90
2022-12-01T23:59:32.126Z,99.90
